Time;durP1;ratioP1;P1;durP2;ratioP2;P2;SDS_P1;SDS_P2;PMS_P1;PMS_P2;Temp;Humidity;BMP_temperature;BMP_pressure;BME280_temperature;BME280_humidity;BME280_pressure;Samples;Min_cycle;Max_cycle;Signal;HPM_P1;HPM_P2
2024/01/11 00:01:29;;;;;;;14.68;7.72;;;;;;;-146.27;62.94;47097.19;5081892;28;20431;-73
2024/01/11 00:03:54;;;;;;;19.05;6.53;;;;;;;-146.27;63.65;47093.22;5095917;28;20039;-72
2024/01/11 00:06:19;;;;;;;15.02;7.45;;;;;;;-146.27;64.65;47065.34;5091320;28;20035;-72
2024/01/11 00:08:45;;;;;;;16.45;7.65;;;;;;;-146.27;64.16;47105.16;5088162;28;20058;-73
2024/01/11 00:11:10;;;;;;;13.73;7.50;;;;;;;-146.27;64.07;47089.25;5087344;28;20073;-73
2024/01/11 00:13:36;;;;;;;15.82;6.22;;;;;;;-146.27;64.75;47073.31;5091248;28;20060;-73
2024/01/11 00:16:01;;;;;;;17.25;6.55;;;;;;;-146.27;63.98;47057.38;5087187;28;20919;-73
2024/01/11 00:18:26;;;;;;;19.42;7.40;;;;;;;-146.27;64.84;47097.19;5077105;28;20032;-73
2024/01/11 00:20:52;;;;;;;13.30;6.50;;;;;;;-146.27;64.79;47081.28;5086115;28;20020;-72
2024/01/11 00:23:17;;;;;;;12.50;6.88;;;;;;;-146.27;64.54;47085.25;5088744;28;20020;-73
2024/01/11 00:25:43;;;;;;;13.20;6.97;;;;;;;-146.27;64.92;47069.34;5080763;28;20112;-73
2024/01/11 00:28:08;;;;;;;15.63;7.70;;;;;;;-146.27;65.25;47053.41;5089271;28;20027;-73
2024/01/11 00:30:34;;;;;;;16.50;6.57;;;;;;;-146.27;66.34;47069.34;5088450;28;20051;-72
2024/01/11 00:32:59;;;;;;;17.17;7.30;;;;;;;-146.27;65.39;47047.44;5088145;28;20429;-72
2024/01/11 00:35:25;;;;;;;15.52;7.97;;;;;;;-146.27;66.21;47065.34;5094353;28;20039;-74
2024/01/11 00:37:50;;;;;;;19.35;6.88;;;;;;;-146.27;65.08;47045.44;5090016;28;20031;-73
2024/01/11 00:40:15;;;;;;;17.70;8.40;;;;;;;-146.27;65.41;47075.31;5079973;28;20107;-73
2024/01/11 00:42:41;;;;;;;14.73;7.57;;;;;;;-146.27;66.38;47053.41;5088719;28;20035;-74
2024/01/11 00:45:07;;;;;;;12.45;7.03;;;;;;;-146.27;65.89;47065.34;5090481;28;20028;-73
2024/01/11 00:47:32;;;;;;;18.45;8.55;;;;;;;-146.27;66.09;47045.44;5089165;28;20085;-71
2024/01/11 00:49:57;;;;;;;12.82;6.90;;;;;;;-146.27;66.12;47059.38;5089906;28;20042;-72
2024/01/11 00:52:23;;;;;;;14.10;7.47;;;;;;;-146.27;67.62;47079.28;5075234;28;20105;-72
2024/01/11 00:54:48;;;;;;;14.80;6.95;;;;;;;-146.27;66.86;47033.50;5088149;28;20107;-72
2024/01/11 00:57:14;;;;;;;15.73;7.78;;;;;;;-146.27;66.48;47065.34;5080082;28;20120;-71
2024/01/11 00:59:42;;;;;;;16.67;7.28;;;;;;;-146.27;66.67;47061.38;5082289;28;20105;-72
2024/01/11 01:02:07;;;;;;;15.65;7.97;;;;;;;-146.27;67.47;47057.38;5086704;28;20578;-73
2024/01/11 01:04:33;;;;;;;14.02;6.95;;;;;;;-146.27;68.10;47035.47;5089064;28;20021;-73
2024/01/11 01:06:58;;;;;;;15.30;7.88;;;;;;;-146.27;67.29;47057.38;5080710;28;20033;-73
2024/01/11 01:09:24;;;;;;;20.02;8.35;;;;;;;-146.27;67.33;47041.47;5082767;28;20047;-71
2024/01/11 01:11:49;;;;;;;17.52;7.78;;;;;;;-146.27;67.40;47065.34;5080666;28;20036;-74
2024/01/11 01:14:14;;;;;;;21.92;8.02;;;;;;;-146.27;67.33;47047.44;5083034;28;20477;-72
2024/01/11 01:16:40;;;;;;;21.55;7.97;;;;;;;-146.27;68.30;47053.41;5083296;28;20019;-71
2024/01/11 01:19:05;;;;;;;15.93;7.45;;;;;;;-146.27;67.64;47053.41;5081094;28;20032;-72
2024/01/11 01:21:32;;;;;;;16.77;8.18;;;;;;;-146.27;67.31;47053.41;5085871;28;20102;-73
2024/01/11 01:23:57;;;;;;;18.75;7.90;;;;;;;-146.27;67.15;47057.38;5085461;28;20039;-73
2024/01/11 01:26:23;;;;;;;19.40;8.30;;;;;;;-146.27;67.90;47065.34;5088790;28;20028;-72
2024/01/11 01:28:48;;;;;;;22.25;8.38;;;;;;;-146.27;67.86;47029.50;5087197;28;20032;-71
2024/01/11 01:31:14;;;;;;;17.38;7.15;;;;;;;-146.27;68.05;47045.44;5086650;28;20016;-71
2024/01/11 01:33:40;;;;;;;20.67;8.02;;;;;;;-146.27;67.98;47043.44;5085916;28;20493;-74
2024/01/11 01:36:09;;;;;;;17.35;8.52;;;;;;;-146.27;67.85;47037.47;5079218;28;20025;-72
2024/01/11 01:38:34;;;;;;;16.15;8.00;;;;;;;-146.27;67.86;47055.38;5081955;28;20438;-71
2024/01/11 01:41:00;;;;;;;16.77;8.35;;;;;;;-146.27;68.08;47039.47;5085820;28;20492;-73
2024/01/11 01:43:25;;;;;;;14.55;7.75;;;;;;;-146.27;67.70;47025.53;5094062;28;20022;-71
2024/01/11 01:45:51;;;;;;;22.02;9.20;;;;;;;-146.27;67.98;47021.53;5089940;28;20107;-73
2024/01/11 01:48:17;;;;;;;19.17;8.45;;;;;;;-146.27;67.87;47037.47;5086697;28;20107;-72
2024/01/11 01:50:45;;;;;;;18.02;8.68;;;;;;;-146.27;68.11;47021.53;5080656;28;20104;-73
2024/01/11 01:53:11;;;;;;;18.63;7.53;;;;;;;-146.27;68.47;47055.38;5087553;28;20055;-71
2024/01/11 01:55:36;;;;;;;18.98;8.88;;;;;;;-146.27;68.50;47043.44;5081640;28;20021;-71
2024/01/11 01:58:04;;;;;;;19.38;8.43;;;;;;;-146.27;68.02;47011.59;5079041;28;20040;-71
2024/01/11 02:00:29;;;;;;;14.02;7.13;;;;;;;-146.27;68.46;47033.50;5080246;28;20438;-73
2024/01/11 02:02:55;;;;;;;16.13;7.95;;;;;;;-146.27;68.11;47037.47;5090062;28;20015;-72
2024/01/11 02:05:20;;;;;;;19.58;8.20;;;;;;;-146.27;68.63;47033.50;5087581;28;20046;-73
2024/01/11 02:07:46;;;;;;;21.17;8.65;;;;;;;-146.27;68.58;47005.63;5089563;28;20379;-71
2024/01/11 02:10:12;;;;;;;18.55;7.72;;;;;;;-146.27;68.66;47009.59;5097267;28;20110;-71
2024/01/11 02:12:38;;;;;;;19.02;8.63;;;;;;;-146.27;68.94;47009.59;5091318;28;20024;-71
2024/01/11 02:15:04;;;;;;;17.20;8.55;;;;;;;-146.27;68.28;47031.50;5095650;28;20104;-71
2024/01/11 02:17:30;;;;;;;18.25;7.80;;;;;;;-146.27;68.22;47013.59;5085034;28;20066;-71
2024/01/11 02:19:56;;;;;;;21.05;8.95;;;;;;;-146.27;68.18;46979.72;5091237;28;20106;-73
2024/01/11 02:22:27;;;;;;;22.70;8.88;;;;;;;-146.27;68.70;47013.59;5082717;28;20571;-71
2024/01/11 02:24:53;;;;;;;19.98;8.80;;;;;;;-146.27;69.01;46993.66;5089411;28;20021;-72
2024/01/11 02:27:18;;;;;;;22.10;8.50;;;;;;;-146.27;68.11;47009.59;5074112;28;20446;-72
2024/01/11 02:29:44;;;;;;;18.95;7.97;;;;;;;-146.27;68.98;47011.59;5100056;28;20024;-71
2024/01/11 02:32:09;;;;;;;18.88;8.55;;;;;;;-146.27;68.41;46985.72;5091243;28;20032;-70
2024/01/11 02:34:35;;;;;;;19.40;8.60;;;;;;;-146.27;69.34;46981.72;5088621;28;20028;-72
2024/01/11 02:37:00;;;;;;;20.60;8.80;;;;;;;-146.27;68.92;47005.63;5090325;28;20028;-70
2024/01/11 02:39:26;;;;;;;24.02;7.68;;;;;;;-146.27;69.14;47009.59;5087632;28;20390;-71
2024/01/11 02:41:53;;;;;;;19.10;8.65;;;;;;;-146.27;69.15;47011.59;5098516;28;20089;-70
2024/01/11 02:44:18;;;;;;;20.52;9.05;;;;;;;-146.27;68.77;46989.69;5089797;28;20121;-71
2024/01/11 02:46:44;;;;;;;19.95;9.30;;;;;;;-146.27;68.83;46993.66;5090273;28;20103;-72
2024/01/11 02:49:09;;;;;;;20.67;8.50;;;;;;;-146.27;69.45;46989.69;5091744;28;20020;-71
2024/01/11 02:51:36;;;;;;;16.50;8.50;;;;;;;-146.27;70.26;46977.75;5090355;28;20032;-72
2024/01/11 02:54:02;;;;;;;20.02;9.38;;;;;;;-146.27;68.93;46987.69;5091861;28;20032;-71
2024/01/11 02:56:27;;;;;;;19.85;8.40;;;;;;;-146.27;68.71;47019.56;5092724;28;20120;-72
2024/01/11 02:58:52;;;;;;;18.13;9.40;;;;;;;-146.27;69.09;46973.75;5090571;28;20050;-73
2024/01/11 03:01:18;;;;;;;23.73;9.20;;;;;;;-146.27;69.68;46981.72;5088390;28;20586;-71
2024/01/11 03:03:44;;;;;;;21.25;10.00;;;;;;;-146.27;69.69;46999.66;5089513;28;20046;-72
2024/01/11 03:06:09;;;;;;;22.25;8.30;;;;;;;-146.27;70.29;46961.81;5082385;28;20055;-70
2024/01/11 03:08:35;;;;;;;22.77;9.43;;;;;;;-146.27;69.71;46995.66;5089108;28;20508;-70
2024/01/11 03:11:01;;;;;;;21.92;8.75;;;;;;;-146.27;70.10;46993.66;5093343;28;20491;-71
2024/01/11 03:13:27;;;;;;;17.08;8.63;;;;;;;-146.27;70.25;46989.69;5083264;28;20036;-71
2024/01/11 03:15:52;;;;;;;23.98;9.15;;;;;;;-146.27;70.41;46981.72;5087349;28;20050;-72
2024/01/11 03:18:17;;;;;;;22.02;9.35;;;;;;;-146.27;70.09;46997.66;5091026;28;20032;-72
2024/01/11 03:20:42;;;;;;;21.42;9.45;;;;;;;-146.27;70.27;46989.69;5086749;28;20048;-71
2024/01/11 03:23:08;;;;;;;19.58;8.55;;;;;;;-146.27;70.84;46957.84;5083418;28;20070;-72
2024/01/11 03:25:33;;;;;;;20.98;9.82;;;;;;;-146.27;70.55;46953.84;5088397;28;20027;-70
2024/01/11 03:27:59;;;;;;;23.38;9.23;;;;;;;-146.27;70.99;46971.78;5090836;28;20115;-70
2024/01/11 03:30:25;;;;;;;22.25;9.18;;;;;;;-146.27;71.86;46961.81;5088730;28;20023;-70
2024/01/11 03:32:50;;;;;;;24.15;9.55;;;;;;;-146.27;71.45;46981.72;5081661;28;20051;-72
2024/01/11 03:35:16;;;;;;;23.85;10.60;;;;;;;-146.27;71.44;46961.81;5087358;28;20027;-72
2024/01/11 03:37:41;;;;;;;18.60;9.02;;;;;;;-146.27;71.28;46965.78;5089659;28;20035;-71
2024/01/11 03:40:07;;;;;;;20.10;9.73;;;;;;;-146.27;71.06;46955.84;5090409;28;20024;-72
2024/01/11 03:42:32;;;;;;;23.00;10.23;;;;;;;-146.27;72.13;46935.94;5090903;28;20028;-71
2024/01/11 03:44:58;;;;;;;21.73;10.75;;;;;;;-146.27;71.08;46949.88;5091063;28;20507;-72
2024/01/11 03:47:23;;;;;;;19.45;9.20;;;;;;;-146.27;70.84;46943.91;5085514;28;20089;-70
2024/01/11 03:49:49;;;;;;;23.23;10.75;;;;;;;-146.27;71.78;46975.75;5089107;28;20059;-71
2024/01/11 03:52:14;;;;;;;29.30;10.68;;;;;;;-146.27;72.54;46904.06;5087199;28;20100;-72
2024/01/11 03:54:39;;;;;;;24.90;11.05;;;;;;;-146.27;71.29;46931.94;5091346;28;20107;-72
2024/01/11 03:57:06;;;;;;;23.33;10.38;;;;;;;-146.27;71.16;46925.97;5089638;28;20391;-71
2024/01/11 03:59:31;;;;;;;27.88;11.32;;;;;;;-146.27;71.33;46925.97;5090651;28;20050;-70
2024/01/11 04:01:57;;;;;;;23.70;11.75;;;;;;;-146.27;71.63;46937.91;5093866;28;20027;-72
2024/01/11 04:04:23;;;;;;;31.63;12.65;;;;;;;-146.27;71.82;46914.03;5080980;28;20076;-71
2024/01/11 04:06:48;;;;;;;22.23;10.13;;;;;;;-146.27;70.97;46951.84;5083513;28;20024;-71
2024/01/11 04:09:14;;;;;;;24.42;11.45;;;;;;;-146.27;71.82;46925.97;5079729;28;20459;-70
2024/01/11 04:11:39;;;;;;;28.77;11.82;;;;;;;-146.27;72.38;46920.00;5084040;28;20035;-72
2024/01/11 04:14:04;;;;;;;26.33;11.52;;;;;;;-146.27;71.92;46925.97;5076773;28;20032;-72
2024/01/11 04:16:30;;;;;;;26.40;10.48;;;;;;;-146.27;72.08;46918.00;5083925;28;20248;-72
2024/01/11 04:18:55;;;;;;;29.25;11.50;;;;;;;-146.27;72.18;46914.03;5076758;28;20038;-72
2024/01/11 04:21:22;;;;;;;24.48;10.38;;;;;;;-146.27;72.22;46890.13;5087850;28;20031;-70
2024/01/11 04:23:49;;;;;;;19.67;10.32;;;;;;;-146.27;72.98;46914.03;5088084;28;20020;-70
2024/01/11 04:26:15;;;;;;;23.80;11.15;;;;;;;-146.27;72.54;46912.03;5091514;28;20073;-71
2024/01/11 04:28:40;;;;;;;24.20;11.27;;;;;;;-146.27;72.17;46892.13;5089284;28;20308;-70
2024/01/11 04:31:08;;;;;;;25.70;11.25;;;;;;;-146.27;73.15;46902.09;5092467;28;20024;-71
2024/01/11 04:33:33;;;;;;;22.73;11.10;;;;;;;-146.27;72.71;46894.13;5090456;28;20032;-72
2024/01/11 04:35:59;;;;;;;24.83;11.35;;;;;;;-146.27;73.49;46910.03;5078486;28;20023;-72
2024/01/11 04:38:24;;;;;;;21.80;9.98;;;;;;;-146.27;72.93;46862.25;5082664;28;20115;-70
2024/01/11 04:40:49;;;;;;;25.75;10.85;;;;;;;-146.27;74.31;46878.19;5089905;28;20023;-71
2024/01/11 04:43:15;;;;;;;27.30;11.15;;;;;;;-146.27;74.11;46858.28;5085883;28;20058;-71
2024/01/11 04:45:46;;;;;;;28.50;11.98;;;;;;;-146.27;73.89;46858.28;5081344;28;20025;-72
2024/01/11 04:48:11;;;;;;;24.38;10.98;;;;;;;-146.27;74.26;46854.31;5076618;28;20032;-71
2024/01/11 04:50:37;;;;;;;23.77;11.27;;;;;;;-146.27;73.68;46836.38;5087790;28;20563;-73
2024/01/11 04:53:02;;;;;;;19.92;10.30;;;;;;;-146.27;73.57;46854.31;5084725;28;20064;-71
2024/01/11 04:55:28;;;;;;;22.05;10.13;;;;;;;-146.27;73.99;46842.34;5086156;28;20383;-70
2024/01/11 04:57:53;;;;;;;26.15;11.20;;;;;;;-146.27;74.15;46842.34;5076869;28;20024;-71
2024/01/11 05:00:19;;;;;;;25.25;11.90;;;;;;;-146.27;74.31;46828.41;5084367;28;20506;-71
2024/01/11 05:02:44;;;;;;;21.92;10.63;;;;;;;-146.27;74.79;46806.53;5080055;28;20032;-72
2024/01/11 05:05:09;;;;;;;28.35;12.02;;;;;;;-146.27;74.66;46806.53;5087973;28;20036;-71
2024/01/11 05:07:35;;;;;;;25.45;10.57;;;;;;;-146.27;74.66;46806.53;5075374;28;20020;-71
2024/01/11 05:10:00;;;;;;;25.02;12.45;;;;;;;-146.27;75.38;46794.56;5090254;28;20028;-72
2024/01/11 05:12:26;;;;;;;22.00;11.32;;;;;;;-146.27;75.42;46770.69;5085979;28;20399;-71
2024/01/11 05:14:51;;;;;;;25.20;12.52;;;;;;;-146.27;74.68;46754.75;5088697;28;20024;-70
2024/01/11 05:17:16;;;;;;;28.88;14.00;;;;;;;-146.27;75.80;46770.69;5088982;28;20067;-71
2024/01/11 05:19:42;;;;;;;28.88;13.65;;;;;;;-146.27;75.39;46760.72;5088615;28;20016;-70
2024/01/11 05:22:07;;;;;;;27.52;12.32;;;;;;;-146.27;75.46;46752.75;5085730;28;20050;-71
2024/01/11 05:24:33;;;;;;;23.20;11.70;;;;;;;-146.27;75.58;46730.88;5087249;28;20059;-71
2024/01/11 05:26:59;;;;;;;34.30;13.50;;;;;;;-146.27;76.01;46738.81;5087058;28;20019;-73
2024/01/11 05:29:24;;;;;;;34.10;14.15;;;;;;;-146.27;76.19;46710.94;5082511;28;20145;-70
2024/01/11 05:31:49;;;;;;;25.63;12.38;;;;;;;-146.27;75.89;46704.97;5083691;28;20032;-70
2024/01/11 05:34:15;;;;;;;25.20;12.27;;;;;;;-146.27;76.03;46689.06;5088501;28;20023;-72
2024/01/11 05:36:40;;;;;;;27.85;14.18;;;;;;;-146.27;75.92;46687.06;5088823;28;20028;-72
2024/01/11 05:39:06;;;;;;;29.73;12.77;;;;;;;-146.27;75.45;46671.13;5088571;28;20031;-71
2024/01/11 05:41:31;;;;;;;30.63;14.20;;;;;;;-146.27;76.36;46683.09;5088540;28;20043;-70
2024/01/11 05:43:56;;;;;;;29.17;14.50;;;;;;;-146.27;76.81;46655.22;5082009;28;20026;-70
2024/01/11 05:46:22;;;;;;;39.58;15.05;;;;;;;-146.27;76.33;46667.16;5089249;28;20445;-72
2024/01/11 05:48:48;;;;;;;31.30;16.10;;;;;;;-146.27;76.65;46635.31;5089099;28;20382;-72
2024/01/11 05:51:13;;;;;;;33.63;16.27;;;;;;;-146.27;76.25;46631.31;5088377;28;21552;-72
2024/01/11 05:53:38;;;;;;;39.00;16.05;;;;;;;-146.27;76.78;46609.41;5087052;28;20435;-70
2024/01/11 05:56:09;;;;;;;35.58;16.63;;;;;;;-146.27;77.01;46587.53;5090230;28;20043;-72
2024/01/11 05:58:36;;;;;;;40.67;17.83;;;;;;;-146.27;77.32;46567.63;5087210;28;20032;-73
2024/01/11 06:01:01;;;;;;;38.35;17.00;;;;;;;-146.27;78.53;46472.06;5085355;28;20020;-70
2024/01/11 06:03:28;;;;;;;41.25;17.27;;;;;;;-146.27;77.94;46507.88;5079566;28;20062;-71
2024/01/11 06:05:53;;;;;;;36.28;16.33;;;;;;;-146.27;77.87;46487.97;5083714;28;20420;-72
2024/01/11 06:08:18;;;;;;;34.45;14.90;;;;;;;-146.27;77.07;46480.03;5088200;28;20081;-71
2024/01/11 06:10:44;;;;;;;42.42;17.08;;;;;;;-146.27;76.74;46519.84;5087380;28;20614;-71
2024/01/11 06:13:10;;;;;;;35.47;15.68;;;;;;;-146.27;76.92;46499.94;5078586;28;20024;-71
2024/01/11 06:15:35;;;;;;;38.78;17.80;;;;;;;-146.27;77.23;46482.00;5090003;28;20024;-71
2024/01/11 06:18:01;;;;;;;35.90;15.77;;;;;;;-146.27;77.29;46486.00;5087201;28;20392;-72
2024/01/11 06:20:26;;;;;;;36.42;16.70;;;;;;;-146.27;77.02;46468.06;5088143;28;20479;-71
2024/01/11 06:22:54;;;;;;;36.10;15.55;;;;;;;-146.27;77.24;46456.13;5086449;28;20024;-70
2024/01/11 06:25:19;;;;;;;36.53;17.55;;;;;;;-146.27;77.61;46436.22;5082224;28;20115;-70
2024/01/11 06:27:46;;;;;;;34.40;17.30;;;;;;;-146.27;77.00;46472.06;5084152;28;20482;-70
2024/01/11 06:30:12;;;;;;;35.47;15.98;;;;;;;-146.27;78.54;46408.34;5082301;28;20065;-71
2024/01/11 06:32:38;;;;;;;33.40;16.23;;;;;;;-146.27;77.63;46400.38;5087331;28;20020;-70
2024/01/11 06:35:04;;;;;;;38.63;17.92;;;;;;;-146.27;77.97;46374.50;5084411;28;20040;-70
2024/01/11 06:37:30;;;;;;;41.20;17.58;;;;;;;-146.27;77.72;46368.53;5081419;28;20420;-69
2024/01/11 06:39:56;;;;;;;38.15;16.77;;;;;;;-146.27;77.75;46338.69;5091214;28;20027;-71
2024/01/11 06:42:22;;;;;;;32.70;15.02;;;;;;;-146.27;77.80;46358.59;5082454;28;20035;-71
2024/01/11 06:44:47;;;;;;;44.03;17.10;;;;;;;-146.27;77.90;46334.69;5087349;28;20032;-71
2024/01/11 06:47:12;;;;;;;40.65;17.52;;;;;;;-146.27;78.68;46284.94;5083347;28;20032;-70
2024/01/11 06:49:39;;;;;;;38.60;18.58;;;;;;;-146.27;78.46;46272.97;5083656;28;20073;-70
2024/01/11 06:52:05;;;;;;;39.60;18.33;;;;;;;-146.27;78.78;46269.00;5085237;28;20088;-72
2024/01/11 06:54:32;;;;;;;43.63;16.70;;;;;;;-146.27;78.70;46229.19;5093511;28;20024;-70
2024/01/11 06:56:57;;;;;;;45.17;18.05;;;;;;;-146.27;78.68;46205.31;5089609;28;20024;-71
2024/01/11 06:59:23;;;;;;;45.20;17.58;;;;;;;-146.27;78.50;46201.31;5085393;28;20185;-71
2024/01/11 07:01:49;;;;;;;43.15;19.35;;;;;;;-146.27;78.62;46161.50;5092718;28;20039;-72
2024/01/11 07:04:15;;;;;;;43.65;19.77;;;;;;;-146.27;79.02;46183.41;5090736;28;20026;-72
2024/01/11 07:06:41;;;;;;;40.85;17.83;;;;;;;-146.27;79.20;46111.75;5096645;28;20156;-70
2024/01/11 07:09:06;;;;;;;36.78;16.42;;;;;;;-146.27;79.56;46046.06;5091965;28;20102;-69
2024/01/11 07:11:32;;;;;;;49.58;18.77;;;;;;;-146.27;79.70;46036.09;5082588;28;20032;-70
2024/01/11 07:13:58;;;;;;;48.17;19.00;;;;;;;-146.27;79.77;45980.38;5083143;28;20020;-69
2024/01/11 07:16:23;;;;;;;44.30;19.13;;;;;;;-146.27;79.72;45956.47;5084297;28;20059;-68
2024/01/11 07:18:49;;;;;;;46.50;19.58;;;;;;;-146.27;79.75;45954.50;5085241;28;20496;-69
2024/01/11 07:21:23;;;;;;;41.17;18.52;;;;;;;-146.27;80.23;45926.63;5081997;28;20104;-71
2024/01/11 07:23:48;;;;;;;;;;;;;;;-146.27;80.37;45854.97;5090656;28;20080;-69
2024/01/11 07:26:13;;;;;;;44.35;17.10;;;;;;;-146.27;79.98;45849.00;5092536;28;20439;-69
2024/01/11 07:28:39;;;;;;;37.92;15.93;;;;;;;-146.27;80.09;45860.94;5093022;28;20472;-70
2024/01/11 07:31:04;;;;;;;40.72;18.17;;;;;;;-146.27;80.87;45767.38;5090112;28;20058;-68
2024/01/11 07:33:30;;;;;;;45.50;19.70;;;;;;;-146.27;80.12;45811.19;5091556;28;20024;-70
2024/01/11 07:35:55;;;;;;;46.15;20.00;;;;;;;-146.27;79.75;45841.03;5091206;28;20492;-69
2024/01/11 07:38:21;;;;;;;43.85;19.35;;;;;;;-146.27;80.20;45819.13;5092242;28;20093;-70
2024/01/11 07:40:46;;;;;;;51.08;21.88;;;;;;;-146.27;80.09;45771.38;5091067;28;20027;-68
2024/01/11 07:43:12;;;;;;;45.58;19.60;;;;;;;-146.27;80.98;45703.69;5091192;28;20035;-70
2024/01/11 07:45:37;;;;;;;43.20;19.65;;;;;;;-146.27;79.42;45795.25;5091322;28;20101;-69
2024/01/11 07:48:03;;;;;;;43.53;19.95;;;;;;;-146.27;80.06;45733.56;5091644;28;20055;-70
2024/01/11 07:50:30;;;;;;;43.05;18.13;;;;;;;-146.27;79.25;45854.97;5091169;28;20119;-71
2024/01/11 07:52:56;;;;;;;40.85;18.23;;;;;;;-146.27;79.21;45862.94;5093466;28;20043;-70
2024/01/11 07:55:23;;;;;;;56.00;18.92;;;;;;;-146.27;79.25;45890.78;5111858;28;20031;-68
2024/01/11 07:57:49;;;;;;;40.53;18.95;;;;;;;-146.27;79.01;45890.78;5093074;28;20361;-71
2024/01/11 08:00:15;;;;;;;45.90;20.00;;;;;;;-146.27;79.18;45912.69;5092469;28;20031;-69
2024/01/11 08:02:41;;;;;;;42.75;19.58;;;;;;;-146.27;78.73;45930.59;5091625;28;20035;-68
2024/01/11 08:05:06;;;;;;;41.05;19.50;;;;;;;-146.27;80.31;45864.91;5091194;28;20020;-70
2024/01/11 08:07:32;;;;;;;41.72;19.35;;;;;;;-146.27;79.50;45874.88;5091870;28;20032;-70
2024/01/11 08:09:57;;;;;;;46.65;19.30;;;;;;;-146.27;79.50;45904.72;5091698;28;20067;-69
2024/01/11 08:12:23;;;;;;;40.08;18.13;;;;;;;-146.27;78.84;45954.50;5090538;28;20075;-69
2024/01/11 08:14:48;;;;;;;48.05;19.63;;;;;;;-146.27;78.79;45962.44;5092090;28;20488;-68
2024/01/11 08:17:14;;;;;;;43.13;20.02;;;;;;;-146.27;79.53;45934.59;5091274;28;20028;-69
2024/01/11 08:19:41;;;;;;;46.00;19.88;;;;;;;-146.27;79.57;45942.53;5091349;28;20032;-68
2024/01/11 08:22:10;;;;;;;41.40;18.75;;;;;;;-146.27;79.47;45942.53;5091531;28;20028;-69
2024/01/11 08:24:36;;;;;;;41.85;18.38;;;;;;;-146.27;80.49;45858.94;5096277;28;20567;-67
2024/01/11 08:27:01;;;;;;;37.10;19.40;;;;;;;-146.27;79.59;45934.59;5090783;28;20039;-68
2024/01/11 08:29:27;;;;;;;48.50;19.73;;;;;;;-146.27;79.80;45890.78;5092188;28;20028;-69
2024/01/11 08:31:54;;;;;;;44.97;20.42;;;;;;;-146.27;79.93;45906.72;5090299;28;20020;-70
2024/01/11 08:34:20;;;;;;;50.58;20.88;;;;;;;-146.27;79.77;45914.69;5090279;28;20625;-68
2024/01/11 08:36:46;;;;;;;43.05;19.40;;;;;;;-146.27;79.93;45948.53;5089664;28;20039;-68
2024/01/11 08:39:13;;;;;;;39.13;20.25;;;;;;;-146.27;79.55;45974.41;5090938;28;20055;-69
2024/01/11 08:41:38;;;;;;;50.58;21.40;;;;;;;-146.27;80.36;45918.66;5090168;28;20020;-68
2024/01/11 08:44:07;;;;;;;46.03;20.98;;;;;;;-146.27;79.39;45988.31;5091283;28;20093;-67
2024/01/11 08:46:33;;;;;;;44.38;20.17;;;;;;;-146.27;79.17;46014.22;5090117;28;20058;-70
2024/01/11 08:48:59;;;;;;;41.15;19.15;;;;;;;-146.27;79.05;45990.31;5091223;28;20023;-68
2024/01/11 08:51:25;;;;;;;48.42;21.63;;;;;;;-146.27;79.54;46002.25;5090458;28;20028;-68
2024/01/11 08:53:52;;;;;;;44.15;20.40;;;;;;;-146.27;79.69;45984.34;5089881;28;20059;-69
2024/01/11 08:56:18;;;;;;;46.22;20.77;;;;;;;-146.27;79.80;46002.25;5086644;28;20481;-70
2024/01/11 08:58:43;;;;;;;45.53;19.83;;;;;;;-146.27;79.99;45974.41;5090544;28;20028;-68
2024/01/11 09:01:10;;;;;;;50.88;22.25;;;;;;;-146.27;79.58;45994.31;5088363;28;20032;-68
2024/01/11 09:03:35;;;;;;;47.70;22.40;;;;;;;-146.27;79.59;45988.31;5071202;28;20092;-68
2024/01/11 09:06:01;;;;;;;49.97;22.02;;;;;;;-146.27;79.65;45990.31;5088087;28;20111;-69
2024/01/11 09:08:27;;;;;;;54.55;23.02;;;;;;;-146.27;80.00;45962.44;5089015;28;20031;-69
2024/01/11 09:10:53;;;;;;;46.83;20.88;;;;;;;-146.27;79.77;45954.50;5090278;28;20077;-68
2024/01/11 09:13:19;;;;;;;55.15;21.73;;;;;;;-146.27;79.55;45960.47;5090353;28;20045;-68
2024/01/11 09:15:44;;;;;;;49.90;21.17;;;;;;;-146.27;79.66;45946.53;5089490;28;20055;-68
2024/01/11 09:18:10;;;;;;;50.38;23.77;;;;;;;-146.27;79.50;45974.41;5087773;28;20024;-69
2024/01/11 09:20:35;;;;;;;50.38;21.20;;;;;;;-146.27;79.50;45930.59;5091478;28;20088;-68
2024/01/11 09:23:03;;;;;;;47.08;20.45;;;;;;;-146.27;79.50;45946.53;5095760;28;20035;-70
2024/01/11 09:25:31;;;;;;;52.85;23.42;;;;;;;-146.27;79.63;45942.53;5098832;28;20085;-73
2024/01/11 09:27:56;;;;;;;50.35;22.75;;;;;;;-146.27;79.50;45944.53;5090786;28;20361;-72
2024/01/11 09:30:21;;;;;;;54.33;23.73;;;;;;;-146.27;80.07;45886.81;5080320;28;20085;-72
2024/01/11 09:32:47;;;;;;;56.83;23.80;;;;;;;-146.27;80.42;45882.84;5072297;28;20042;-72
2024/01/11 09:35:13;;;;;;;57.42;25.25;;;;;;;-146.27;80.18;45874.88;5089709;28;20031;-71
2024/01/11 09:37:38;;;;;;;55.28;24.35;;;;;;;-146.27;80.21;45827.09;5086811;28;20110;-70
2024/01/11 09:40:08;;;;;;;48.83;22.65;;;;;;;-146.27;80.42;45839.03;5089659;28;20023;-69
2024/01/11 09:42:33;;;;;;;52.38;23.23;;;;;;;-146.27;80.22;45831.09;5089962;28;20484;-69
2024/01/11 09:45:01;;;;;;;57.28;24.00;;;;;;;-146.27;80.11;45821.13;5089664;28;20023;-70
2024/01/11 09:47:28;;;;;;;56.60;25.80;;;;;;;-146.27;79.99;45803.22;5089473;28;20030;-70
2024/01/11 09:49:55;;;;;;;50.25;23.90;;;;;;;-146.27;79.88;45831.09;5089875;28;20055;-69
2024/01/11 09:52:22;;;;;;;53.45;24.05;;;;;;;-146.27;79.99;45791.28;5087483;28;20046;-70
2024/01/11 09:54:48;;;;;;;57.08;25.45;;;;;;;-146.27;79.61;45813.16;5087154;28;20085;-69
2024/01/11 09:57:21;;;;;;;54.70;24.58;;;;;;;-146.27;79.33;45839.03;5093379;28;20024;-70
2024/01/11 09:59:48;;;;;;;55.28;24.73;;;;;;;-146.27;78.90;45852.97;5089166;28;20115;-69
2024/01/11 10:02:14;;;;;;;55.58;24.05;;;;;;;-146.27;78.95;45852.97;5089857;28;20430;-70
2024/01/11 10:04:42;;;;;;;58.55;25.88;;;;;;;-146.27;78.91;45874.88;5087851;28;20050;-70
2024/01/11 10:07:09;;;;;;;53.80;24.83;;;;;;;-146.27;78.74;45837.06;5089017;28;20020;-71
2024/01/11 10:09:34;;;;;;;54.55;24.95;;;;;;;-146.27;78.70;45864.91;5087365;28;20061;-71
2024/01/11 10:12:00;;;;;;;55.80;24.30;;;;;;;-146.27;78.49;45870.88;5090901;28;20032;-72
2024/01/11 10:14:26;;;;;;;54.25;22.42;;;;;;;-146.27;78.49;45874.88;5097435;28;20020;-71
2024/01/11 10:16:54;;;;;;;53.72;24.55;;;;;;;-146.27;78.24;45843.03;5088722;28;20168;-70
2024/01/11 10:19:21;;;;;;;47.63;22.20;;;;;;;-146.27;78.30;45850.97;5090050;28;20361;-74
2024/01/11 10:21:46;;;;;;;50.22;22.65;;;;;;;-146.27;78.19;45856.97;5090328;28;20053;-73
2024/01/11 10:24:18;;;;;;;44.75;21.63;;;;;;;-146.27;78.33;45854.97;5088128;28;20111;-74
2024/01/11 10:26:43;;;;;;;43.33;21.20;;;;;;;-146.27;78.46;45852.97;5105123;28;20031;-73
2024/01/11 10:29:10;;;;;;;46.42;20.95;;;;;;;-146.27;78.13;45858.94;5100267;28;20118;-75
2024/01/11 10:31:36;;;;;;;48.05;22.85;;;;;;;-146.27;78.74;45837.06;5093452;28;20016;-73
2024/01/11 10:34:01;;;;;;;45.53;21.50;;;;;;;-146.27;78.65;45817.16;5114779;28;20069;-74
2024/01/11 10:36:30;;;;;;;46.05;21.70;;;;;;;-146.27;78.49;45837.06;5114341;27;20456;-73
2024/01/11 10:39:00;;;;;;;51.22;22.25;;;;;;;-146.27;78.57;45827.09;5114557;28;20038;-73
2024/01/11 10:41:28;;;;;;;43.63;21.63;;;;;;;-146.27;78.45;45803.22;5114654;28;20119;-74
2024/01/11 10:43:55;;;;;;;42.65;19.80;;;;;;;-146.27;78.59;45819.13;5089363;28;20122;-73
2024/01/11 10:46:25;;;;;;;44.63;20.67;;;;;;;-146.27;78.87;45785.31;5091551;28;20024;-73
2024/01/11 10:48:56;;;;;;;46.17;19.70;;;;;;;-146.27;78.87;45803.22;5093276;28;20024;-75
2024/01/11 10:51:23;;;;;;;46.67;21.55;;;;;;;-146.27;78.65;45787.28;5079733;28;20020;-75
2024/01/11 10:53:50;;;;;;;40.35;20.48;;;;;;;-146.27;78.72;45779.31;5093624;28;20407;-75
2024/01/11 10:56:16;;;;;;;48.70;20.95;;;;;;;-146.27;78.65;45767.38;5090677;28;20077;-74
2024/01/11 10:58:43;;;;;;;44.42;19.15;;;;;;;-146.27;78.95;45771.38;5093011;28;20024;-74